Eems Spirit — PBTK — position and weather

sailwx.info

Track history (hours):
 
Tides and Currents Weather Stations Pressure Air Temp Water Temp Dewpoint Dewpoint Depression Visibility Wind Speed Wind Dir Waves Ship Positions

Eems Spirit

Last reported at 2017-Nov-20 00:25 UTC. Time now 2017-Nov-21 19:32 UTC.
Position N 66°49' E 013°56'.

Length 87 m; draft 3.9 m.

Type: Cargo ship. MMSI: 246593000.

Date/timePositionNaut miles runAvg speedWind from/ knotsBaromVisibWave heightAir tempDewpointWater temp
2017-Nov-20 00:25N 66°49' E 013°56'0 0.0
2017-Nov-19 23:46N 66°49' E 013°56'0 0.0
2017-Nov-19 23:13N 66°49' E 013°56'0 0.0
2017-Nov-19 22:40N 66°49' E 013°56'0 0.0
2017-Nov-19 22:22N 66°49' E 013°56'0 0.0
2017-Nov-19 21:55N 66°49' E 013°56'0 0.0
2017-Nov-19 21:28N 66°49' E 013°56'0 0.0
2017-Nov-19 20:58N 66°49' E 013°56'0 0.0
2017-Nov-19 20:19N 66°49' E 013°56'0 0.0
2017-Nov-19 19:55N 66°49' E 013°56'0 0.0
2017-Nov-19 19:25N 66°49' E 013°56'0 0.0
2017-Nov-19 18:58N 66°49' E 013°56'0 0.0
2017-Nov-19 18:28N 66°49' E 013°56'0 0.0
2017-Nov-19 17:58N 66°49' E 013°56'0 0.0
2017-Nov-19 17:25N 66°49' E 013°56'0 0.0
2017-Nov-19 16:58N 66°49' E 013°56'0 0.0
2017-Nov-19 16:28N 66°49' E 013°56'0 0.0
2017-Nov-19 15:58N 66°49' E 013°56'0 0.0
2017-Nov-19 15:25N 66°49' E 013°56'0 0.0
2017-Nov-19 14:52N 66°49' E 013°56'0 0.0
2017-Nov-19 14:28N 66°49' E 013°56'0 0.0
2017-Nov-19 13:58N 66°49' E 013°56'0 0.0
2017-Nov-19 13:13N 66°49' E 013°56'0 0.0
2017-Nov-19 12:55N 66°49' E 013°56'0 0.0
2017-Nov-19 12:25N 66°49' E 013°56'0 0.0
2017-Nov-19 11:49N 66°49' E 013°56'0 0.0
2017-Nov-19 11:19N 66°49' E 013°56'0 0.0
2017-Nov-19 07:43N 66°49' E 013°56'0 0.0
2017-Nov-19 07:22N 66°49' E 013°56'0 0.0
2017-Nov-19 06:58N 66°49' E 013°56'0 0.0
2017-Nov-19 06:25N 66°49' E 013°56'0 0.0
2017-Nov-19 05:55N 66°49' E 013°56'0 0.0
2017-Nov-19 05:25N 66°49' E 013°56'2 2.4
2017-Nov-19 04:46N 66°48' E 013°52'3 9.4
2017-Nov-19 04:30N 66°49' E 013°46'5 9.6
2017-Nov-19 04:00N 66°49' E 013°34'5 9.6
2017-Nov-19 03:30N 66°48' E 013°22'5 9.3
2017-Nov-19 03:00N 66°45' E 013°13'5 9.6
2017-Nov-19 02:30N 66°41' E 013°08'5 9.9
2017-Nov-19 02:00N 66°36' E 013°04'4 8.2
2017-Nov-19 01:30N 66°32' E 012°59'4 9.1
2017-Nov-19 01:00N 66°28' E 012°60'510.1
2017-Nov-19 00:30N 66°23' E 012°58'4 8.6
2017-Nov-19 00:01N 66°20' E 012°51'5 9.2
2017-Nov-18 23:30N 66°17' E 012°41'5 9.3
2017-Nov-18 23:00N 66°15' E 012°31'4 8.1
2017-Nov-18 22:30N 66°16' E 012°21'5 9.3
2017-Nov-18 22:00N 66°17' E 012°09'5 9.5
2017-Nov-18 21:30N 66°16' E 011°58'5 9.7
2017-Nov-18 21:00N 66°15' E 011°46'249 8.9
2017-Nov-17 17:06N 62°56' E 005°56'1 8.5
2017-Nov-17 17:00N 62°56' E 005°55'4 8.6
2017-Nov-17 16:30N 62°53' E 005°48'4 8.8
2017-Nov-17 16:00N 62°50' E 005°41'4 8.5
2017-Nov-17 15:30N 62°46' E 005°35'4 8.0
2017-Nov-17 15:00N 62°43' E 005°30'4 8.2
2017-Nov-17 14:30N 62°40' E 005°24'4 7.7
2017-Nov-17 14:01N 62°37' E 005°19'4 8.0
2017-Nov-17 13:30N 62°34' E 005°13'4 8.2
2017-Nov-17 13:00N 62°31' E 005°07'4 8.5
2017-Nov-17 12:30N 62°28' E 005°01'4 8.3
2017-Nov-17 12:00N 62°24' E 004°56'4 7.8
2017-Nov-17 11:30N 62°21' E 004°52'4 7.6
2017-Nov-17 11:00N 62°17' E 004°49'4 7.7
2017-Nov-17 10:30N 62°14' E 004°46'4 7.7
2017-Nov-17 10:00N 62°10' E 004°43'4 7.7
2017-Nov-17 09:30N 62°07' E 004°40'4 7.5
2017-Nov-17 09:00N 62°03' E 004°37'4 7.2
2017-Nov-17 08:31N 61°60' E 004°35'4 7.2
2017-Nov-17 08:00N 61°56' E 004°32'4 7.5
2017-Nov-17 07:31N 61°53' E 004°28'4 7.4
2017-Nov-17 07:00N 61°50' E 004°25'50 7.1
2017-Nov-16 23:52N 60°60' E 004°14'3 7.3
2017-Nov-16 23:30N 60°57' E 004°15'  
2017-Nov-14 01:52N 52°24' E 003°02'3 8.9
2017-Nov-14 01:30N 52°21' E 003°03'5 9.1
2017-Nov-14 01:00N 52°16' E 003°06'5 9.2
2017-Nov-14 00:29N 52°12' E 003°08'5 9.2
2017-Nov-13 23:59N 52°07' E 003°07'63 2.9
2017-Nov-13 01:58N 51°22' E 004°17'0 0.0
2017-Nov-13 01:07N 51°22' E 004°17'0 0.0
2017-Nov-13 00:46N 51°22' E 004°17'0 0.0
2017-Nov-13 00:28N 51°22' E 004°17'0 0.0
2017-Nov-12 23:40N 51°22' E 004°17'0 0.0
2017-Nov-12 23:28N 51°22' E 004°17'0 0.0
2017-Nov-12 22:52N 51°22' E 004°17'0 0.0
2017-Nov-12 22:16N 51°22' E 004°17'0 0.0
2017-Nov-12 21:58N 51°22' E 004°17'0 0.0
2017-Nov-12 21:01N 51°22' E 004°17'0 0.0
2017-Nov-12 20:58N 51°22' E 004°17'0 0.0
2017-Nov-12 20:25N 51°22' E 004°17'0 0.0
2017-Nov-12 19:52N 51°22' E 004°17'0 0.0
2017-Nov-12 19:25N 51°22' E 004°17'0 0.0
2017-Nov-12 18:58N 51°22' E 004°17'0 0.0
2017-Nov-12 18:19N 51°22' E 004°17'0 0.0
2017-Nov-12 17:52N 51°22' E 004°17'0 0.0
2017-Nov-12 17:28N 51°22' E 004°17'0 0.0
2017-Nov-12 16:43N 51°22' E 004°17'0 0.0
2017-Nov-12 16:28N 51°22' E 004°17'0 0.0
2017-Nov-12 15:22N 51°22' E 004°17'0 0.0
2017-Nov-12 14:55N 51°22' E 004°17'0 0.0
2017-Nov-12 14:22N 51°22' E 004°17'0 0.0
2017-Nov-12 13:52N 51°22' E 004°17'0 0.0
2017-Nov-12 13:19N 51°22' E 004°17'0 0.0
2017-Nov-12 12:58N 51°22' E 004°17'0 0.0
2017-Nov-12 12:28N 51°22' E 004°17'0 0.0
2017-Nov-12 11:49N 51°22' E 004°17'0 0.0
2017-Nov-12 11:16N 51°22' E 004°17'0 0.0
2017-Nov-12 10:58N 51°22' E 004°17'0 0.0
2017-Nov-12 10:25N 51°22' E 004°17'0 0.0
2017-Nov-12 09:58N 51°22' E 004°17'0 0.0
2017-Nov-12 09:25N 51°22' E 004°17'0 0.0
2017-Nov-12 08:52N 51°22' E 004°17'0 0.0
2017-Nov-12 08:28N 51°22' E 004°17'0 0.0
2017-Nov-12 07:52N 51°22' E 004°17'0 0.0
2017-Nov-12 07:28N 51°22' E 004°17'0 0.0
2017-Nov-12 06:58N 51°22' E 004°17'0 0.0
2017-Nov-12 06:28N 51°22' E 004°17'0 0.0
2017-Nov-12 05:59N 51°22' E 004°17'0 0.0
2017-Nov-12 05:28N 51°22' E 004°17'0 0.0
2017-Nov-12 04:55N 51°22' E 004°17'0 0.0
2017-Nov-12 04:28N 51°22' E 004°17'0 0.0
2017-Nov-12 04:00N 51°22' E 004°17'1 1.7
2017-Nov-12 03:31N 51°21' E 004°17'0 0.0
2017-Nov-12 03:01N 51°21' E 004°17'0 0.2
2017-Nov-12 02:31N 51°21' E 004°17'3 5.7
2017-Nov-12 02:00N 51°22' E 004°13'3 5.5
2017-Nov-12 01:30N 51°22' E 004°09'4 7.8
2017-Nov-12 01:00N 51°23' E 004°03'4 7.5
2017-Nov-12 00:30N 51°26' E 003°59'4 8.4
2017-Nov-12 00:00N 51°22' E 003°56'4 7.5
2017-Nov-11 23:30N 51°21' E 003°51'4 7.7
2017-Nov-11 23:00N 51°22' E 003°45'4 8.0
2017-Nov-11 22:30N 51°25' E 003°40'4 7.8
2017-Nov-11 22:00N 51°26' E 003°34'4 7.7
2017-Nov-11 21:30N 51°29' E 003°30'4 8.3
2017-Nov-11 21:00N 51°32' E 003°25'4 8.6
2017-Nov-11 20:30N 51°36' E 003°23'5 9.3
2017-Nov-11 19:57N 51°40' E 003°18'6 7.8
2017-Nov-11 19:13N 51°45' E 003°13'2 6.5
2017-Nov-11 18:57N 51°46' E 003°12'66 9.3
2017-Nov-11 11:51N 52°35' E 001°60'411.2
2017-Nov-11 11:30N 52°38' E 001°57'510.6
2017-Nov-11 11:00N 52°43' E 001°53'510.2
2017-Nov-11 10:30N 52°47' E 001°49'5 9.8
2017-Nov-11 10:00N 52°51' E 001°43'5 9.2
2017-Nov-11 09:30N 52°54' E 001°37'4 9.0
2017-Nov-11 09:00N 52°56' E 001°31'4 8.6
2017-Nov-11 08:30N 52°59' E 001°25'4 8.5
2017-Nov-11 08:00N 53°01' E 001°19'4 8.2
2017-Nov-11 07:30N 53°03' E 001°13'4 8.3
2017-Nov-11 07:00N 53°05' E 001°07'45 8.7
2017-Nov-11 01:47N 53°33' E 000°08'411.7
2017-Nov-11 01:27N 53°35' E 000°02'613.0
2017-Nov-11 01:00N 53°37' W 000°07'612.4
2017-Nov-11 00:30N 53°42' W 000°14'510.0
2017-Nov-11 00:00N 53°43' W 000°22'510.4
2017-Nov-10 23:30N 53°41' W 000°31'5 8.7
2017-Nov-10 22:54N 53°43' W 000°38'  
Track history (hours):
 
Tides and Currents Weather Stations Pressure Air Temp Water Temp Dewpoint Dewpoint Depression Visibility Wind Speed Wind Dir Waves Ship Positions

Eems Spirit

Last reported at 2017-Nov-20 00:25 UTC. Time now 2017-Nov-21 19:32 UTC.
Position N 66°49' E 013°56'.

Length 87 m; draft 3.9 m.

Type: Cargo ship. MMSI: 246593000.

Date/timePositionNaut miles runAvg speedWind from/ knotsBaromVisibWave heightAir tempDewpointWater temp
2017-Nov-20 00:25N 66°49' E 013°56'0 0.0
2017-Nov-19 23:46N 66°49' E 013°56'0 0.0
2017-Nov-19 23:13N 66°49' E 013°56'0 0.0
2017-Nov-19 22:40N 66°49' E 013°56'0 0.0
2017-Nov-19 22:22N 66°49' E 013°56'0 0.0
2017-Nov-19 21:55N 66°49' E 013°56'0 0.0
2017-Nov-19 21:28N 66°49' E 013°56'0 0.0
2017-Nov-19 20:58N 66°49' E 013°56'0 0.0
2017-Nov-19 20:19N 66°49' E 013°56'0 0.0
2017-Nov-19 19:55N 66°49' E 013°56'0 0.0
2017-Nov-19 19:25N 66°49' E 013°56'0 0.0
2017-Nov-19 18:58N 66°49' E 013°56'0 0.0
2017-Nov-19 18:28N 66°49' E 013°56'0 0.0
2017-Nov-19 17:58N 66°49' E 013°56'0 0.0
2017-Nov-19 17:25N 66°49' E 013°56'0 0.0
2017-Nov-19 16:58N 66°49' E 013°56'0 0.0
2017-Nov-19 16:28N 66°49' E 013°56'0 0.0
2017-Nov-19 15:58N 66°49' E 013°56'0 0.0
2017-Nov-19 15:25N 66°49' E 013°56'0 0.0
2017-Nov-19 14:52N 66°49' E 013°56'0 0.0
2017-Nov-19 14:28N 66°49' E 013°56'0 0.0
2017-Nov-19 13:58N 66°49' E 013°56'0 0.0
2017-Nov-19 13:13N 66°49' E 013°56'0 0.0
2017-Nov-19 12:55N 66°49' E 013°56'0 0.0
2017-Nov-19 12:25N 66°49' E 013°56'0 0.0
2017-Nov-19 11:49N 66°49' E 013°56'0 0.0
2017-Nov-19 11:19N 66°49' E 013°56'0 0.0
2017-Nov-19 07:43N 66°49' E 013°56'0 0.0
2017-Nov-19 07:22N 66°49' E 013°56'0 0.0
2017-Nov-19 06:58N 66°49' E 013°56'0 0.0
2017-Nov-19 06:25N 66°49' E 013°56'0 0.0
2017-Nov-19 05:55N 66°49' E 013°56'0 0.0
2017-Nov-19 05:25N 66°49' E 013°56'2 2.4
2017-Nov-19 04:46N 66°48' E 013°52'3 9.4
2017-Nov-19 04:30N 66°49' E 013°46'5 9.6
2017-Nov-19 04:00N 66°49' E 013°34'5 9.6
2017-Nov-19 03:30N 66°48' E 013°22'5 9.3
2017-Nov-19 03:00N 66°45' E 013°13'5 9.6
2017-Nov-19 02:30N 66°41' E 013°08'5 9.9
2017-Nov-19 02:00N 66°36' E 013°04'4 8.2
2017-Nov-19 01:30N 66°32' E 012°59'4 9.1
2017-Nov-19 01:00N 66°28' E 012°60'510.1
2017-Nov-19 00:30N 66°23' E 012°58'4 8.6
2017-Nov-19 00:01N 66°20' E 012°51'5 9.2
2017-Nov-18 23:30N 66°17' E 012°41'5 9.3
2017-Nov-18 23:00N 66°15' E 012°31'4 8.1
2017-Nov-18 22:30N 66°16' E 012°21'5 9.3
2017-Nov-18 22:00N 66°17' E 012°09'5 9.5
2017-Nov-18 21:30N 66°16' E 011°58'5 9.7
2017-Nov-18 21:00N 66°15' E 011°46'249 8.9
2017-Nov-17 17:06N 62°56' E 005°56'1 8.5
2017-Nov-17 17:00N 62°56' E 005°55'4 8.6
2017-Nov-17 16:30N 62°53' E 005°48'4 8.8
2017-Nov-17 16:00N 62°50' E 005°41'4 8.5
2017-Nov-17 15:30N 62°46' E 005°35'4 8.0
2017-Nov-17 15:00N 62°43' E 005°30'4 8.2
2017-Nov-17 14:30N 62°40' E 005°24'4 7.7
2017-Nov-17 14:01N 62°37' E 005°19'4 8.0
2017-Nov-17 13:30N 62°34' E 005°13'4 8.2
2017-Nov-17 13:00N 62°31' E 005°07'4 8.5
2017-Nov-17 12:30N 62°28' E 005°01'4 8.3
2017-Nov-17 12:00N 62°24' E 004°56'4 7.8
2017-Nov-17 11:30N 62°21' E 004°52'4 7.6
2017-Nov-17 11:00N 62°17' E 004°49'4 7.7
2017-Nov-17 10:30N 62°14' E 004°46'4 7.7
2017-Nov-17 10:00N 62°10' E 004°43'4 7.7
2017-Nov-17 09:30N 62°07' E 004°40'4 7.5
2017-Nov-17 09:00N 62°03' E 004°37'4 7.2
2017-Nov-17 08:31N 61°60' E 004°35'4 7.2
2017-Nov-17 08:00N 61°56' E 004°32'4 7.5
2017-Nov-17 07:31N 61°53' E 004°28'4 7.4
2017-Nov-17 07:00N 61°50' E 004°25'50 7.1
2017-Nov-16 23:52N 60°60' E 004°14'3 7.3
2017-Nov-16 23:30N 60°57' E 004°15'  
2017-Nov-14 01:52N 52°24' E 003°02'3 8.9
2017-Nov-14 01:30N 52°21' E 003°03'5 9.1
2017-Nov-14 01:00N 52°16' E 003°06'5 9.2
2017-Nov-14 00:29N 52°12' E 003°08'5 9.2
2017-Nov-13 23:59N 52°07' E 003°07'63 2.9
2017-Nov-13 01:58N 51°22' E 004°17'0 0.0
2017-Nov-13 01:07N 51°22' E 004°17'0 0.0
2017-Nov-13 00:46N 51°22' E 004°17'0 0.0
2017-Nov-13 00:28N 51°22' E 004°17'0 0.0
2017-Nov-12 23:40N 51°22' E 004°17'0 0.0
2017-Nov-12 23:28N 51°22' E 004°17'0 0.0
2017-Nov-12 22:52N 51°22' E 004°17'0 0.0
2017-Nov-12 22:16N 51°22' E 004°17'0 0.0
2017-Nov-12 21:58N 51°22' E 004°17'0 0.0
2017-Nov-12 21:01N 51°22' E 004°17'0 0.0
2017-Nov-12 20:58N 51°22' E 004°17'0 0.0
2017-Nov-12 20:25N 51°22' E 004°17'0 0.0
2017-Nov-12 19:52N 51°22' E 004°17'0 0.0
2017-Nov-12 19:25N 51°22' E 004°17'0 0.0
2017-Nov-12 18:58N 51°22' E 004°17'0 0.0
2017-Nov-12 18:19N 51°22' E 004°17'0 0.0
2017-Nov-12 17:52N 51°22' E 004°17'0 0.0
2017-Nov-12 17:28N 51°22' E 004°17'0 0.0
2017-Nov-12 16:43N 51°22' E 004°17'0 0.0
2017-Nov-12 16:28N 51°22' E 004°17'0 0.0
2017-Nov-12 15:22N 51°22' E 004°17'0 0.0
2017-Nov-12 14:55N 51°22' E 004°17'0 0.0
2017-Nov-12 14:22N 51°22' E 004°17'0 0.0
2017-Nov-12 13:52N 51°22' E 004°17'0 0.0
2017-Nov-12 13:19N 51°22' E 004°17'0 0.0
2017-Nov-12 12:58N 51°22' E 004°17'0 0.0
2017-Nov-12 12:28N 51°22' E 004°17'0 0.0
2017-Nov-12 11:49N 51°22' E 004°17'0 0.0
2017-Nov-12 11:16N 51°22' E 004°17'0 0.0
2017-Nov-12 10:58N 51°22' E 004°17'0 0.0
2017-Nov-12 10:25N 51°22' E 004°17'0 0.0
2017-Nov-12 09:58N 51°22' E 004°17'0 0.0
2017-Nov-12 09:25N 51°22' E 004°17'0 0.0
2017-Nov-12 08:52N 51°22' E 004°17'0 0.0
2017-Nov-12 08:28N 51°22' E 004°17'0 0.0
2017-Nov-12 07:52N 51°22' E 004°17'0 0.0
2017-Nov-12 07:28N 51°22' E 004°17'0 0.0
2017-Nov-12 06:58N 51°22' E 004°17'0 0.0
2017-Nov-12 06:28N 51°22' E 004°17'0 0.0
2017-Nov-12 05:59N 51°22' E 004°17'0 0.0
2017-Nov-12 05:28N 51°22' E 004°17'0 0.0
2017-Nov-12 04:55N 51°22' E 004°17'0 0.0
2017-Nov-12 04:28N 51°22' E 004°17'0 0.0
2017-Nov-12 04:00N 51°22' E 004°17'1 1.7
2017-Nov-12 03:31N 51°21' E 004°17'0 0.0
2017-Nov-12 03:01N 51°21' E 004°17'0 0.2
2017-Nov-12 02:31N 51°21' E 004°17'3 5.7
2017-Nov-12 02:00N 51°22' E 004°13'3 5.5
2017-Nov-12 01:30N 51°22' E 004°09'4 7.8
2017-Nov-12 01:00N 51°23' E 004°03'4 7.5
2017-Nov-12 00:30N 51°26' E 003°59'4 8.4
2017-Nov-12 00:00N 51°22' E 003°56'4 7.5
2017-Nov-11 23:30N 51°21' E 003°51'4 7.7
2017-Nov-11 23:00N 51°22' E 003°45'4 8.0
2017-Nov-11 22:30N 51°25' E 003°40'4 7.8
2017-Nov-11 22:00N 51°26' E 003°34'4 7.7
2017-Nov-11 21:30N 51°29' E 003°30'4 8.3
2017-Nov-11 21:00N 51°32' E 003°25'4 8.6
2017-Nov-11 20:30N 51°36' E 003°23'5 9.3
2017-Nov-11 19:57N 51°40' E 003°18'6 7.8
2017-Nov-11 19:13N 51°45' E 003°13'2 6.5
2017-Nov-11 18:57N 51°46' E 003°12'66 9.3
2017-Nov-11 11:51N 52°35' E 001°60'411.2
2017-Nov-11 11:30N 52°38' E 001°57'510.6
2017-Nov-11 11:00N 52°43' E 001°53'510.2
2017-Nov-11 10:30N 52°47' E 001°49'5 9.8
2017-Nov-11 10:00N 52°51' E 001°43'5 9.2
2017-Nov-11 09:30N 52°54' E 001°37'4 9.0
2017-Nov-11 09:00N 52°56' E 001°31'4 8.6
2017-Nov-11 08:30N 52°59' E 001°25'4 8.5
2017-Nov-11 08:00N 53°01' E 001°19'4 8.2
2017-Nov-11 07:30N 53°03' E 001°13'4 8.3
2017-Nov-11 07:00N 53°05' E 001°07'45 8.7
2017-Nov-11 01:47N 53°33' E 000°08'411.7
2017-Nov-11 01:27N 53°35' E 000°02'613.0
2017-Nov-11 01:00N 53°37' W 000°07'612.4
2017-Nov-11 00:30N 53°42' W 000°14'510.0
2017-Nov-11 00:00N 53°43' W 000°22'510.4
2017-Nov-10 23:30N 53°41' W 000°31'5 8.7
2017-Nov-10 22:54N 53°43' W 000°38'  

Dump ship's entire track history